Weather at Eldoret International Airport

Public forecast

Using degrees Celsius for public forecast. Weather courtesy of forecast.io.

Current aviation weather report (METAR) for Eldoret International Airport

Report is more than 2 hours old.

2024/04/22 22:00 (retrieved 3 hours ago)

HKEL 222200Z VRB02KT 9999 TS FEW017CB BKN080 18/15 Q1024

Aviation forecast (TAF) for Eldoret International Airport

Forecast is more than 12 hours old.

2024/04/22 12:51 (retrieved 12 hours ago)

TAF TAF HKEL 221100Z 2212/2318 15010KT 9999 FEW023CB SCT024 TEMPO 2214/2218 VRB10KT -TSRA FEW020CB SCT021 SCT080 BECMG 2221/2224 18005KT -RA SCT018 BKN080 BECMG 2301/2305 NSW FEW014 BECMG 2308/2311 FEW023CB SCT024 TEMPO 2312/2316 VRB10KT -TSRA FEW019CB SCT020 BKN080